Time;durP1;ratioP1;P1;durP2;ratioP2;P2;SDS_P1;SDS_P2;PMS_P1;PMS_P2;Temp;Humidity;BMP_temperature;BMP_pressure;BME280_temperature;BME280_humidity;BME280_pressure;Samples;Min_cycle;Max_cycle;Signal;HPM_P1;HPM_P2
2022/02/07 00:00:34;;;;;;;2.60;0.60;;;1.70;99.90;;;;;;5068364;28;20046;-50
2022/02/07 00:03:18;;;;;;;5.82;1.48;;;1.80;99.90;;;;;;5068133;28;20043;-47
2022/02/07 00:05:44;;;;;;;1.85;0.60;;;1.70;99.90;;;;;;5068011;28;20070;-50
2022/02/07 00:08:11;;;;;;;7.10;1.35;;;1.70;99.90;;;;;;5067611;28;20453;-50
2022/02/07 00:10:38;;;;;;;7.70;0.80;;;1.70;99.90;;;;;;5068200;28;20031;-47
2022/02/07 00:13:04;;;;;;;3.47;0.60;;;1.60;99.90;;;;;;5055537;28;20090;-47
2022/02/07 00:15:30;;;;;;;1.05;0.60;;;1.60;99.90;;;;;;5054643;28;20021;-47
2022/02/07 00:17:55;;;;;;;4.32;0.85;;;1.60;99.90;;;;;;5047686;28;20372;-47
2022/02/07 00:20:22;;;;;;;5.10;0.75;;;1.60;99.90;;;;;;5047963;28;20344;-49
2022/02/07 00:22:49;;;;;;;3.72;0.77;;;1.60;99.90;;;;;;5048105;28;20028;-49
2022/02/07 00:25:16;;;;;;;2.83;0.75;;;1.60;99.90;;;;;;5048026;28;20029;-48
2022/02/07 00:27:42;;;;;;;2.92;0.70;;;1.60;99.90;;;;;;5047242;28;20225;-47
2022/02/07 00:30:11;;;;;;;1.95;0.55;;;1.60;99.90;;;;;;5047886;28;20035;-47
2022/02/07 00:32:36;;;;;;;9.15;0.90;;;1.60;99.90;;;;;;5046626;28;20025;-47
2022/02/07 00:35:04;;;;;;;3.15;0.70;;;1.60;99.90;;;;;;5049122;28;20557;-47
2022/02/07 00:37:31;;;;;;;2.45;0.70;;;1.60;99.90;;;;;;5051048;28;20017;-47
2022/02/07 00:40:15;;;;;;;3.28;0.70;;;1.60;99.90;;;;;;5051506;28;20024;-47
2022/02/07 00:42:53;;;;;;;2.53;1.38;;;1.60;99.90;;;;;;5050664;28;20097;-46
2022/02/07 00:45:40;;;;;;;3.42;1.00;;;1.60;99.90;;;;;;5059678;28;20029;-48
2022/02/07 00:48:08;;;;;;;4.25;1.00;;;1.60;99.90;;;;;;5050969;28;20276;-47
2022/02/07 00:50:35;;;;;;;5.88;1.50;;;1.70;99.90;;;;;;5051435;28;20033;-46
2022/02/07 00:53:01;;;;;;;6.95;1.55;;;1.60;99.90;;;;;;5051356;28;20237;-47
2022/02/07 00:55:27;;;;;;;2.45;1.20;;;1.60;99.90;;;;;;5051342;28;20028;-47
2022/02/07 00:57:53;;;;;;;9.32;1.30;;;1.60;99.90;;;;;;5050474;28;20074;-47
2022/02/07 01:00:19;;;;;;;9.35;1.80;;;1.60;99.90;;;;;;5051086;28;20044;-47
2022/02/07 01:02:45;;;;;;;7.65;1.30;;;1.60;99.90;;;;;;5050999;28;20025;-47
2022/02/07 01:05:12;;;;;;;7.10;1.65;;;1.60;99.90;;;;;;5051022;28;20067;-47
2022/02/07 01:07:38;;;;;;;6.55;1.38;;;1.70;99.90;;;;;;5050425;28;20029;-47
2022/02/07 01:10:05;;;;;;;13.90;2.65;;;1.70;99.90;;;;;;5050995;28;20040;-47
2022/02/07 01:15:11;;;;;;;4.03;1.45;;;1.80;99.90;;;;;;5062516;28;20052;-48
2022/02/07 01:52:57;;;;;;;25.90;3.00;;;2.00;99.90;;;;;;5050214;28;20055;-48
2022/02/07 01:57:55;;;;;;;23.92;3.47;;;2.00;99.90;;;;;;5049108;28;20056;-48
2022/02/07 02:00:21;;;;;;;13.30;3.97;;;2.00;99.90;;;;;;5049544;28;20494;-47
2022/02/07 02:02:48;;;;;;;13.43;2.72;;;2.00;99.90;;;;;;5048541;28;20407;-47
2022/02/07 02:05:14;;;;;;;17.83;3.28;;;2.00;99.90;;;;;;5049805;28;20025;-47
2022/02/07 02:07:40;;;;;;;12.60;2.30;;;2.00;99.90;;;;;;5049031;28;20096;-48
2022/02/07 02:10:06;;;;;;;21.95;2.85;;;1.90;99.90;;;;;;5049587;28;20021;-46
2022/02/07 02:12:37;;;;;;;16.13;2.45;;;1.90;99.90;;;;;;5048505;28;20029;-45
2022/02/07 02:37:18;;;;;;;22.15;3.33;;;2.10;99.90;;;;;;5029385;28;20044;-47
2022/02/07 02:45:32;;;;;;;20.50;3.28;;;2.10;99.90;;;;;;5052396;28;20035;-46
2022/02/07 02:48:01;;;;;;;21.27;2.70;;;2.10;99.90;;;;;;5068354;28;20474;-47
2022/02/07 02:50:32;;;;;;;18.40;4.63;;;2.10;99.90;;;;;;5069152;28;20115;-46
2022/02/07 02:53:17;;;;;;;24.92;3.25;;;2.10;99.90;;;;;;5068709;28;20064;-47
2022/02/07 02:55:46;;;;;;;14.93;2.90;;;2.10;99.90;;;;;;5043790;28;20083;-45
2022/02/07 02:58:14;;;;;;;27.17;4.47;;;2.10;99.90;;;;;;5042569;28;20458;-47
2022/02/07 03:00:41;;;;;;;17.05;2.83;;;2.10;99.90;;;;;;5045456;28;20552;-47
2022/02/07 03:03:07;;;;;;;17.15;2.50;;;2.20;99.90;;;;;;5048773;28;20123;-48
2022/02/07 03:05:33;;;;;;;17.42;2.85;;;2.20;99.90;;;;;;5048108;28;20115;-46
2022/02/07 03:07:58;;;;;;;12.80;2.25;;;2.10;99.90;;;;;;5034209;28;20036;-47
2022/02/07 03:10:32;;;;;;;22.83;3.17;;;2.20;99.90;;;;;;5045650;28;20183;-45
2022/02/07 03:13:10;;;;;;;16.10;3.30;;;2.20;99.90;;;;;;5050842;28;20020;-46
2022/02/07 03:18:21;;;;;;;10.90;2.38;;;2.20;99.90;;;;;;5068319;28;20036;-46
2022/02/07 03:20:47;;;;;;;17.75;2.17;;;2.10;99.90;;;;;;5067685;28;20028;-46
2022/02/07 03:23:13;;;;;;;17.95;2.60;;;2.10;99.90;;;;;;5069025;28;20056;-50
2022/02/07 03:25:39;;;;;;;9.55;2.15;;;2.10;99.90;;;;;;5056832;28;20048;-47
2022/02/07 03:28:05;;;;;;;11.95;2.63;;;2.10;99.90;;;;;;5059283;28;20489;-47
2022/02/07 03:30:30;;;;;;;17.35;2.30;;;2.10;99.90;;;;;;5068531;28;20036;-47
2022/02/07 03:32:56;;;;;;;15.93;2.17;;;2.10;99.90;;;;;;5067075;28;20452;-47
2022/02/07 03:35:21;;;;;;;18.65;2.45;;;2.20;99.90;;;;;;5068272;28;20658;-47
2022/02/07 03:37:47;;;;;;;14.70;2.88;;;2.20;99.90;;;;;;5067719;28;20052;-47
2022/02/07 03:40:13;;;;;;;12.20;3.83;;;2.30;99.90;;;;;;5068451;28;20355;-48
2022/02/07 03:42:39;;;;;;;11.80;2.17;;;2.30;99.90;;;;;;5060152;28;20503;-49
2022/02/07 03:45:05;;;;;;;13.48;2.72;;;2.40;99.90;;;;;;5056564;28;20089;-47
2022/02/07 03:47:31;;;;;;;11.73;2.67;;;2.40;99.90;;;;;;5067557;28;20074;-46
2022/02/07 03:49:57;;;;;;;11.43;2.22;;;2.40;99.90;;;;;;5068099;28;20044;-46
2022/02/07 03:52:24;;;;;;;15.25;2.38;;;2.40;99.90;;;;;;5068040;28;20357;-47
2022/02/07 03:54:49;;;;;;;18.42;2.35;;;2.50;99.90;;;;;;5066729;28;20540;-47
2022/02/07 03:57:16;;;;;;;13.48;3.40;;;2.40;99.90;;;;;;5067447;28;20024;-47
2022/02/07 03:59:42;;;;;;;20.98;2.78;;;2.40;99.90;;;;;;5067845;28;20086;-46
2022/02/07 04:02:07;;;;;;;19.98;2.83;;;2.40;99.90;;;;;;5068566;28;20028;-47
2022/02/07 04:04:33;;;;;;;24.80;4.07;;;2.50;99.90;;;;;;5060367;28;20093;-48
2022/02/07 04:06:59;;;;;;;9.63;2.25;;;2.40;99.90;;;;;;5054473;28;20529;-47
2022/02/07 04:09:31;;;;;;;9.75;1.85;;;2.50;99.90;;;;;;5067635;28;20060;-46
2022/02/07 04:12:06;;;;;;;17.02;3.05;;;2.40;99.90;;;;;;5072067;28;20052;-48
2022/02/07 04:14:32;;;;;;;11.15;2.53;;;2.40;99.90;;;;;;5070418;28;20073;-46
2022/02/07 04:16:58;;;;;;;10.50;2.85;;;2.40;99.90;;;;;;5071672;28;20033;-46
2022/02/07 04:19:31;;;;;;;17.75;4.05;;;2.50;99.90;;;;;;5071237;28;20082;-47
2022/02/07 04:21:56;;;;;;;7.10;2.05;;;2.40;99.90;;;;;;5072067;28;20120;-46
2022/02/07 04:24:22;;;;;;;18.52;2.92;;;2.40;99.90;;;;;;5071779;28;20096;-46
2022/02/07 04:26:47;;;;;;;14.65;3.13;;;2.40;99.90;;;;;;5071774;28;20024;-46
2022/02/07 04:29:13;;;;;;;10.73;1.73;;;2.30;99.90;;;;;;5070746;28;20033;-47
2022/02/07 04:31:38;;;;;;;12.00;2.50;;;2.40;99.90;;;;;;5071449;28;20029;-48
2022/02/07 04:34:04;;;;;;;7.30;2.00;;;2.30;99.90;;;;;;5071483;28;20032;-49
2022/02/07 04:36:30;;;;;;;11.68;1.65;;;2.40;99.90;;;;;;5054653;28;20036;-47
2022/02/07 04:38:56;;;;;;;9.75;2.15;;;2.40;99.90;;;;;;5067957;28;20040;-49
2022/02/07 04:41:23;;;;;;;6.40;1.90;;;2.40;99.90;;;;;;5071331;28;20029;-50
2022/02/07 04:43:57;;;;;;;8.38;1.92;;;2.40;99.90;;;;;;5060535;28;20455;-47
2022/02/07 04:46:36;;;;;;;10.00;2.10;;;2.40;99.90;;;;;;5056387;28;20052;-47
2022/02/07 04:49:22;;;;;;;14.23;2.20;;;2.30;99.90;;;;;;5070755;28;20020;-47
2022/02/07 04:51:55;;;;;;;11.93;1.67;;;2.30;99.90;;;;;;5070128;28;20200;-47
2022/02/07 05:02:10;;;;;;;4.25;1.40;;;2.20;99.90;;;;;;5071048;28;20071;-49
2022/02/07 05:04:41;;;;;;;6.63;1.75;;;2.30;99.90;;;;;;5071071;28;20161;-47
2022/02/07 05:15:19;;;;;;;3.35;1.55;;;2.20;99.90;;;;;;5051241;28;20032;-50
2022/02/07 05:17:44;;;;;;;2.05;1.20;;;2.20;99.90;;;;;;5050287;28;20100;-46
2022/02/07 05:20:10;;;;;;;5.20;1.55;;;2.10;99.90;;;;;;5050818;28;20451;-46
2022/02/07 05:22:37;;;;;;;4.85;1.65;;;2.10;99.90;;;;;;5049656;28;20025;-45
2022/02/07 05:25:04;;;;;;;6.35;1.85;;;2.10;99.90;;;;;;5050808;28;20033;-46
2022/02/07 05:27:29;;;;;;;6.20;2.00;;;2.10;99.90;;;;;;5049918;28;20028;-46
2022/02/07 05:29:55;;;;;;;3.08;1.95;;;2.10;99.90;;;;;;5048849;28;20052;-46
2022/02/07 05:32:21;;;;;;;6.80;1.83;;;2.00;99.90;;;;;;5050431;28;20037;-46
2022/02/07 05:34:47;;;;;;;8.85;2.30;;;2.00;99.90;;;;;;5050451;28;20104;-47
2022/02/07 05:37:14;;;;;;;7.68;1.90;;;2.00;99.90;;;;;;5050349;28;20025;-46
2022/02/07 05:39:43;;;;;;;6.38;1.67;;;2.00;99.90;;;;;;5050246;28;20025;-47
2022/02/07 05:42:09;;;;;;;8.57;2.50;;;2.00;99.90;;;;;;5050160;28;20044;-47
2022/02/07 05:44:37;;;;;;;6.72;1.80;;;2.00;99.90;;;;;;5053083;28;20052;-47
2022/02/07 05:47:03;;;;;;;9.40;2.00;;;2.10;99.90;;;;;;5067914;28;20013;-46
2022/02/07 05:49:30;;;;;;;7.00;2.17;;;2.10;99.90;;;;;;5069585;28;20127;-46
2022/02/07 05:51:55;;;;;;;6.13;2.10;;;2.10;99.90;;;;;;5069967;28;20025;-46
2022/02/07 05:54:21;;;;;;;11.57;2.30;;;2.10;99.90;;;;;;5069981;28;20108;-46
2022/02/07 05:56:47;;;;;;;6.70;2.03;;;2.10;99.90;;;;;;5071460;28;20067;-46
2022/02/07 05:59:13;;;;;;;5.53;2.00;;;2.20;99.90;;;;;;5070521;28;20056;-47
2022/02/07 06:01:38;;;;;;;10.30;2.22;;;2.20;99.90;;;;;;5070069;28;20031;-46
2022/02/07 06:04:04;;;;;;;5.93;1.80;;;2.20;99.90;;;;;;5069902;28;20024;-46
2022/02/07 06:06:29;;;;;;;9.45;3.85;;;2.20;99.90;;;;;;5064137;28;20092;-47
2022/02/07 06:08:55;;;;;;;5.15;1.60;;;2.20;99.90;;;;;;5040124;28;20037;-47
2022/02/07 06:11:20;;;;;;;6.95;1.70;;;2.30;99.90;;;;;;5037847;28;20463;-47
2022/02/07 06:13:46;;;;;;;4.68;1.70;;;2.30;99.90;;;;;;5047836;28;20074;-47
2022/02/07 06:16:16;;;;;;;4.88;1.58;;;2.40;99.90;;;;;;5057032;28;20048;-47
2022/02/07 06:18:41;;;;;;;13.63;2.03;;;2.30;99.90;;;;;;5049512;28;20336;-46
2022/02/07 06:21:07;;;;;;;10.77;2.33;;;2.30;99.90;;;;;;5047694;28;20279;-46
2022/02/07 06:23:33;;;;;;;6.68;2.28;;;2.30;99.90;;;;;;5041093;28;20171;-46
2022/02/07 06:25:58;;;;;;;7.57;1.30;;;2.30;99.90;;;;;;5038248;28;20056;-46
2022/02/07 06:28:24;;;;;;;5.43;1.30;;;2.30;99.90;;;;;;5036651;28;20379;-47
2022/02/07 06:30:50;;;;;;;9.25;1.75;;;2.40;99.90;;;;;;5032936;28;20027;-48
2022/02/07 06:33:15;;;;;;;4.35;1.20;;;2.40;99.90;;;;;;5042409;28;20028;-46
2022/02/07 06:35:41;;;;;;;8.32;1.75;;;2.40;99.90;;;;;;5040995;28;20223;-48
2022/02/07 06:38:06;;;;;;;10.85;1.77;;;2.40;99.90;;;;;;5037868;28;20045;-48
2022/02/07 06:40:32;;;;;;;14.50;1.73;;;2.40;99.90;;;;;;5040043;28;20029;-47
2022/02/07 06:42:58;;;;;;;7.05;1.98;;;2.40;99.90;;;;;;5038318;28;20184;-48
2022/02/07 06:45:24;;;;;;;16.23;3.88;;;2.50;99.90;;;;;;5048101;28;20594;-48
2022/02/07 06:47:49;;;;;;;9.18;2.30;;;2.50;99.90;;;;;;5040823;28;20506;-50
2022/02/07 06:50:15;;;;;;;6.53;1.63;;;2.50;99.90;;;;;;5041549;28;20021;-47
2022/02/07 06:52:40;;;;;;;14.40;2.38;;;2.60;99.90;;;;;;5040851;28;20465;-48
2022/02/07 06:55:06;;;;;;;20.80;2.80;;;2.60;99.90;;;;;;5046103;28;20035;-47
2022/02/07 06:57:32;;;;;;;25.88;5.38;;;2.70;99.90;;;;;;5038556;28;20895;-48
2022/02/07 07:00:01;;;;;;;18.02;4.07;;;2.70;99.90;;;;;;5038490;28;20030;-49
2022/02/07 07:02:27;;;;;;;18.30;3.22;;;2.70;99.90;;;;;;5039787;28;20630;-49
2022/02/07 07:04:56;;;;;;;13.25;3.30;;;2.80;99.90;;;;;;5050301;28;20463;-48
2022/02/07 07:07:21;;;;;;;20.98;5.22;;;2.80;99.90;;;;;;5049195;28;20021;-48
2022/02/07 07:09:47;;;;;;;25.80;4.05;;;2.80;99.90;;;;;;5035262;28;20040;-46
2022/02/07 07:12:15;;;;;;;27.23;4.15;;;2.80;99.90;;;;;;5049157;28;20114;-49
2022/02/07 07:14:50;;;;;;;23.20;3.65;;;2.90;99.90;;;;;;5043302;28;20017;-47
2022/02/07 07:17:16;;;;;;;32.83;5.82;;;2.90;99.90;;;;;;5050803;28;20368;-47
2022/02/07 07:19:42;;;;;;;28.45;4.03;;;2.90;99.90;;;;;;5053148;28;20055;-48
2022/02/07 07:22:07;;;;;;;28.05;5.20;;;2.90;99.90;;;;;;5049702;28;20028;-47
2022/02/07 07:24:36;;;;;;;24.20;3.80;;;3.00;99.90;;;;;;5048366;28;20454;-47
2022/02/07 07:27:02;;;;;;;26.17;5.53;;;3.00;99.90;;;;;;5048867;28;20029;-49
2022/02/07 07:29:32;;;;;;;30.13;5.75;;;3.00;99.90;;;;;;5049613;28;20029;-48
2022/02/07 07:32:02;;;;;;;21.48;4.07;;;3.10;99.90;;;;;;5058430;28;20027;-49
2022/02/07 07:34:29;;;;;;;30.43;5.00;;;3.10;99.90;;;;;;5052020;28;20036;-48
2022/02/07 07:36:55;;;;;;;18.08;3.38;;;3.10;99.90;;;;;;5034720;28;20341;-47
2022/02/07 07:39:20;;;;;;;25.60;4.05;;;3.20;99.90;;;;;;5026361;28;20037;-47
2022/02/07 07:41:46;;;;;;;24.73;4.47;;;3.20;99.90;;;;;;5043678;28;20074;-46
2022/02/07 07:44:17;;;;;;;21.70;4.47;;;3.20;99.90;;;;;;5052939;28;20112;-47
2022/02/07 07:46:43;;;;;;;19.40;4.03;;;3.30;99.90;;;;;;5055669;28;20021;-47
2022/02/07 07:49:29;;;;;;;17.30;3.33;;;3.30;99.90;;;;;;5041506;28;20033;-48
2022/02/07 07:51:59;;;;;;;24.75;4.22;;;3.30;99.90;;;;;;5046000;28;20037;-47
2022/02/07 07:54:43;;;;;;;18.83;3.33;;;3.30;99.90;;;;;;5037369;28;20032;-46
2022/02/07 08:02:42;;;;;;;18.92;3.33;;;3.40;99.90;;;;;;5050635;28;20071;-47
2022/02/07 08:05:18;;;;;;;23.48;3.40;;;3.30;99.90;;;;;;5031294;28;20452;-47
2022/02/07 08:07:50;;;;;;;26.25;3.80;;;3.40;99.90;;;;;;5034567;28;20026;-48
2022/02/07 08:12:46;;;;;;;14.95;2.90;;;3.50;99.90;;;;;;5064251;28;20059;-47
2022/02/07 08:15:14;;;;;;;17.20;2.55;;;3.50;99.90;;;;;;5062703;28;20083;-47
2022/02/07 08:17:40;;;;;;;20.80;3.88;;;3.60;99.90;;;;;;5068663;28;20033;-46
2022/02/07 08:20:06;;;;;;;21.25;6.45;;;3.60;99.90;;;;;;5043927;28;20024;-47
2022/02/07 08:22:31;;;;;;;25.35;2.90;;;3.70;99.90;;;;;;5051635;28;20252;-50
2022/02/07 08:24:58;;;;;;;18.40;3.35;;;3.80;99.90;;;;;;5044307;28;20033;-46
2022/02/07 08:27:25;;;;;;;20.52;3.05;;;3.80;99.90;;;;;;5060260;28;20024;-46
2022/02/07 08:29:52;;;;;;;22.02;3.33;;;3.80;99.90;;;;;;5035316;28;20104;-47
2022/02/07 08:32:18;;;;;;;15.07;3.13;;;3.80;99.90;;;;;;5032715;28;20037;-48
2022/02/07 08:34:43;;;;;;;11.45;2.95;;;3.90;99.90;;;;;;5050428;28;20495;-47
2022/02/07 08:37:09;;;;;;;19.95;4.28;;;3.90;99.90;;;;;;5038693;28;20029;-47
2022/02/07 08:39:35;;;;;;;11.98;4.45;;;3.90;99.90;;;;;;5041585;28;20052;-48
2022/02/07 08:42:01;;;;;;;19.88;4.20;;;4.00;99.90;;;;;;5042807;28;20069;-47
2022/02/07 08:44:27;;;;;;;14.45;3.08;;;4.10;99.90;;;;;;5044873;28;20317;-48
2022/02/07 08:46:53;;;;;;;23.90;3.35;;;4.10;99.90;;;;;;5063014;28;20028;-47
2022/02/07 08:49:19;;;;;;;14.90;3.05;;;4.20;99.90;;;;;;5053439;28;20025;-47
2022/02/07 08:51:45;;;;;;;16.13;3.28;;;4.30;99.90;;;;;;5038898;28;20518;-47
2022/02/07 08:54:17;;;;;;;24.35;5.40;;;4.30;99.90;;;;;;5055248;28;20033;-48
2022/02/07 08:56:51;;;;;;;16.70;2.83;;;4.40;99.90;;;;;;5049887;28;20528;-47
2022/02/07 08:59:17;;;;;;;18.42;4.38;;;4.40;99.90;;;;;;5034493;28;20111;-48
2022/02/07 09:01:49;;;;;;;19.83;3.42;;;4.50;99.90;;;;;;5044249;28;20080;-48
2022/02/07 09:07:05;;;;;;;20.90;3.17;;;4.60;99.90;;;;;;5034796;28;20546;-47
2022/02/07 09:09:31;;;;;;;18.95;3.45;;;4.70;99.90;;;;;;5030769;28;20025;-48
2022/02/07 09:11:57;;;;;;;15.38;2.88;;;4.90;99.90;;;;;;5031203;28;20040;-48
2022/02/07 09:14:24;;;;;;;19.48;3.05;;;4.90;99.90;;;;;;5043470;28;20034;-47
2022/02/07 09:16:51;;;;;;;28.80;4.25;;;5.10;99.90;;;;;;5061984;28;20032;-47
2022/02/07 09:19:20;;;;;;;15.20;3.35;;;5.20;99.90;;;;;;5057860;28;20029;-47
2022/02/07 09:21:49;;;;;;;14.85;3.42;;;5.10;99.90;;;;;;5054311;28;20104;-47
2022/02/07 09:24:15;;;;;;;17.15;3.47;;;5.20;99.90;;;;;;5047626;28;20549;-47
2022/02/07 09:26:42;;;;;;;16.02;3.10;;;5.20;99.90;;;;;;5037988;28;20029;-47
2022/02/07 09:29:07;;;;;;;28.70;4.32;;;5.40;99.90;;;;;;5039386;28;20021;-48
2022/02/07 09:31:33;;;;;;;25.52;4.68;;;5.60;99.90;;;;;;5039298;28;20025;-47
2022/02/07 09:33:58;;;;;;;13.13;2.88;;;5.70;99.90;;;;;;5040997;28;20025;-48
2022/02/07 09:36:24;;;;;;;20.70;3.13;;;5.70;99.90;;;;;;5040656;28;20033;-47
2022/02/07 09:38:51;;;;;;;20.98;3.40;;;5.70;99.90;;;;;;5039650;28;20018;-47
2022/02/07 09:41:18;;;;;;;22.83;4.20;;;5.80;99.90;;;;;;5041022;28;20083;-47
2022/02/07 09:43:48;;;;;;;19.98;3.35;;;5.70;99.90;;;;;;5044981;28;20116;-50
2022/02/07 09:46:21;;;;;;;14.90;3.20;;;5.60;99.90;;;;;;5048813;28;20045;-47
2022/02/07 09:48:51;;;;;;;13.48;3.72;;;5.60;99.90;;;;;;5038930;28;20235;-47
2022/02/07 09:51:17;;;;;;;15.27;2.90;;;5.60;99.90;;;;;;5040518;28;20554;-48
2022/02/07 09:53:42;;;;;;;16.70;3.22;;;5.70;99.90;;;;;;5041643;28;20290;-51
2022/02/07 09:56:10;;;;;;;18.27;3.80;;;5.70;99.90;;;;;;5039832;28;20436;-50
2022/02/07 09:58:38;;;;;;;19.38;3.33;;;5.80;99.90;;;;;;5039426;28;20025;-48
2022/02/07 10:01:08;;;;;;;19.10;4.03;;;5.80;99.90;;;;;;5050302;28;20053;-47
2022/02/07 10:03:46;;;;;;;33.80;5.80;;;6.00;99.90;;;;;;5041812;28;20021;-47
2022/02/07 10:06:25;;;;;;;21.35;3.72;;;6.10;99.90;;;;;;5039444;28;20032;-47
2022/02/07 10:09:04;;;;;;;15.75;3.20;;;6.20;99.90;;;;;;5040175;28;20023;-48
2022/02/07 10:14:09;;;;;;;15.75;4.30;;;7.90;99.90;;;;;;5043018;28;20053;-48
2022/02/07 10:17:03;;;;;;;21.35;3.53;;;8.80;99.90;;;;;;5042562;28;20391;-48
2022/02/07 10:19:59;;;;;;;16.08;3.60;;;9.80;99.90;;;;;;5040383;28;20083;-48
2022/02/07 10:46:09;;;;;;;25.15;5.78;;;13.60;90.80;;;;;;5041459;28;20023;-47
2022/02/07 10:48:40;;;;;;;18.38;5.35;;;13.80;88.60;;;;;;5043715;28;20028;-47
2022/02/07 10:51:16;;;;;;;24.95;6.28;;;12.40;91.70;;;;;;5050758;28;20110;-47
2022/02/07 10:53:52;;;;;;;17.83;5.00;;;11.40;93.60;;;;;;5052811;28;20391;-47
2022/02/07 10:56:23;;;;;;;22.23;6.00;;;10.30;97.30;;;;;;5070697;28;20028;-47
2022/02/07 10:58:52;;;;;;;25.05;5.78;;;9.90;99.30;;;;;;5057544;28;20025;-48
2022/02/07 11:04:13;;;;;;;26.80;6.32;;;9.60;99.90;;;;;;5041613;28;20029;-50
2022/02/07 11:06:41;;;;;;;27.40;7.13;;;9.70;99.90;;;;;;5049306;28;20494;-49
2022/02/07 11:09:26;;;;;;;28.85;5.90;;;9.50;99.90;;;;;;5049904;28;20029;-48
2022/02/07 11:12:13;;;;;;;24.45;6.38;;;8.70;99.90;;;;;;5050377;28;20037;-46
2022/02/07 11:14:50;;;;;;;24.65;5.25;;;8.70;99.90;;;;;;5056722;28;20159;-49
2022/02/07 11:25:18;;;;;;;23.83;4.93;;;10.20;99.90;;;;;;5059164;28;20041;-49
2022/02/07 11:27:53;;;;;;;25.88;4.45;;;11.50;97.00;;;;;;5048309;28;20498;-47
2022/02/07 11:30:41;;;;;;;22.67;4.40;;;12.60;92.30;;;;;;5049767;28;20037;-48
2022/02/07 11:33:08;;;;;;;19.77;4.63;;;12.90;92.00;;;;;;5049822;28;20037;-50
2022/02/07 11:35:49;;;;;;;15.70;4.47;;;13.40;91.30;;;;;;5047041;28;20415;-51
2022/02/07 11:38:18;;;;;;;20.70;5.65;;;14.40;87.60;;;;;;5045145;28;20037;-51
2022/02/07 11:41:01;;;;;;;20.80;4.45;;;14.70;81.10;;;;;;5041099;28;20071;-49
2022/02/07 11:43:34;;;;;;;15.88;4.55;;;14.70;79.30;;;;;;5040093;28;20021;-47
2022/02/07 11:46:13;;;;;;;19.67;5.20;;;14.80;82.90;;;;;;5055530;28;20032;-50
2022/02/07 11:48:47;;;;;;;14.52;4.20;;;14.90;79.40;;;;;;5034379;28;20021;-49
2022/02/07 11:51:14;;;;;;;16.77;4.20;;;15.40;74.60;;;;;;5035849;28;20119;-48
2022/02/07 11:53:47;;;;;;;18.48;4.70;;;15.20;76.10;;;;;;5028262;28;20033;-48
2022/02/07 11:56:41;;;;;;;16.85;3.97;;;14.50;72.70;;;;;;5033840;28;20087;-48
2022/02/07 12:01:52;;;;;;;16.95;4.13;;;12.50;80.70;;;;;;5028458;28;20031;-50
2022/02/07 12:04:37;;;;;;;17.55;4.47;;;12.70;79.90;;;;;;5028338;28;20478;-47
2022/02/07 12:07:23;;;;;;;19.60;4.43;;;11.80;82.80;;;;;;5028296;28;20026;-49
2022/02/07 12:10:03;;;;;;;17.42;5.07;;;11.30;82.90;;;;;;5043445;28;20024;-47
2022/02/07 12:12:45;;;;;;;15.75;3.78;;;10.20;86.50;;;;;;5051154;28;20039;-47
2022/02/07 12:15:11;;;;;;;23.05;4.50;;;9.70;87.60;;;;;;5055956;28;20168;-47
2022/02/07 12:17:40;;;;;;;17.65;4.05;;;10.00;92.00;;;;;;5037429;28;20111;-48
2022/02/07 12:20:08;;;;;;;17.10;4.28;;;10.80;85.60;;;;;;5054697;28;20032;-48
2022/02/07 12:22:57;;;;;;;17.23;4.10;;;11.30;85.70;;;;;;5046095;28;20244;-48
2022/02/07 12:25:49;;;;;;;20.13;4.50;;;10.80;85.60;;;;;;5026940;28;20072;-49
2022/02/07 12:31:21;;;;;;;14.38;4.03;;;9.90;90.10;;;;;;5035664;28;20090;-49
2022/02/07 12:33:47;;;;;;;;;;;10.10;88.40;;;;;;5050885;28;20112;-47
2022/02/07 12:36:12;;;;;;;16.80;3.65;;;9.90;88.90;;;;;;5051700;28;19996;-48
2022/02/07 12:38:41;;;;;;;25.95;4.65;;;9.50;89.10;;;;;;5050916;28;20112;-50
2022/02/07 12:41:12;;;;;;;24.67;5.20;;;9.20;90.70;;;;;;5049879;28;20025;-49
2022/02/07 12:43:40;;;;;;;16.17;3.40;;;9.20;91.40;;;;;;5044882;28;20030;-47
2022/02/07 12:46:11;;;;;;;18.70;3.47;;;8.80;91.80;;;;;;5050948;28;20558;-49
2022/02/07 12:48:40;;;;;;;18.42;3.85;;;8.50;92.30;;;;;;5057451;28;20036;-48
2022/02/07 12:51:06;;;;;;;15.15;3.33;;;8.40;93.40;;;;;;5043660;28;20380;-47
2022/02/07 12:53:32;;;;;;;17.42;3.55;;;8.20;92.60;;;;;;5031152;28;20033;-47
2022/02/07 12:56:04;;;;;;;27.60;4.40;;;7.90;95.30;;;;;;5032518;28;20141;-47
2022/02/07 12:58:38;;;;;;;14.68;2.67;;;7.60;98.70;;;;;;5038834;28;20025;-47
2022/02/07 13:01:27;;;;;;;12.32;2.90;;;7.30;99.90;;;;;;5031414;28;20554;-47
2022/02/07 13:04:05;;;;;;;13.85;2.92;;;7.10;99.90;;;;;;5031399;28;20029;-49
2022/02/07 13:06:34;;;;;;;12.60;2.50;;;7.00;99.90;;;;;;5031309;28;20037;-47
2022/02/07 13:09:04;;;;;;;10.40;2.90;;;7.10;99.90;;;;;;5036202;28;20025;-50
2022/02/07 13:11:33;;;;;;;16.42;3.03;;;7.20;99.90;;;;;;5039559;28;20495;-47
2022/02/07 13:14:00;;;;;;;18.67;3.90;;;7.20;99.90;;;;;;5062102;28;20037;-49
2022/02/07 13:16:31;;;;;;;18.40;3.42;;;7.20;99.90;;;;;;5062538;28;20054;-47
2022/02/07 13:19:14;;;;;;;20.90;3.10;;;7.30;99.90;;;;;;5052172;28;20482;-47
2022/02/07 13:21:43;;;;;;;20.58;3.40;;;7.90;99.90;;;;;;5046225;28;20071;-49
2022/02/07 13:24:15;;;;;;;17.63;4.30;;;8.20;99.90;;;;;;5050853;28;20021;-47
2022/02/07 13:26:49;;;;;;;16.98;3.65;;;8.60;99.90;;;;;;5048242;28;20475;-50
2022/02/07 13:29:20;;;;;;;17.13;3.35;;;8.80;99.50;;;;;;5035895;28;20033;-48
2022/02/07 13:32:00;;;;;;;18.35;3.15;;;8.90;99.90;;;;;;5061773;28;20060;-48
2022/02/07 13:34:28;;;;;;;12.55;3.25;;;9.20;99.50;;;;;;5071114;28;20032;-47
2022/02/07 13:37:30;;;;;;;16.15;3.10;;;9.30;98.60;;;;;;5070581;28;20488;-47
2022/02/07 13:40:02;;;;;;;14.52;3.85;;;9.40;99.00;;;;;;5031580;28;20041;-50
2022/02/07 13:42:39;;;;;;;15.98;3.10;;;9.50;97.80;;;;;;5049542;28;20025;-47
2022/02/07 13:45:16;;;;;;;15.75;2.95;;;9.30;99.10;;;;;;5059455;28;20566;-47
2022/02/07 13:47:48;;;;;;;17.02;3.22;;;9.10;99.20;;;;;;5064894;28;20021;-48
2022/02/07 13:50:17;;;;;;;15.18;3.55;;;8.60;99.90;;;;;;5048549;28;20533;-47
2022/02/07 13:52:48;;;;;;;14.70;2.60;;;7.80;99.90;;;;;;5030280;28;20041;-47
2022/02/07 13:55:30;;;;;;;19.80;2.83;;;7.00;99.90;;;;;;5030451;28;20033;-47
2022/02/07 13:58:02;;;;;;;13.90;3.58;;;6.50;99.90;;;;;;5043823;28;20025;-46
2022/02/07 14:00:36;;;;;;;10.88;3.17;;;6.20;99.90;;;;;;5039627;28;20033;-49
2022/02/07 14:03:18;;;;;;;19.40;3.55;;;6.00;99.90;;;;;;5065044;28;20498;-47
2022/02/07 14:05:51;;;;;;;18.95;3.10;;;5.90;99.90;;;;;;5069906;28;20414;-47
2022/02/07 14:08:29;;;;;;;18.65;4.00;;;5.80;99.90;;;;;;5069833;28;20028;-47
2022/02/07 14:10:54;;;;;;;16.13;3.70;;;5.60;99.90;;;;;;5069547;28;20471;-47
2022/02/07 14:13:20;;;;;;;22.75;4.97;;;5.50;99.90;;;;;;5068159;28;20078;-46
2022/02/07 14:15:46;;;;;;;15.35;4.88;;;5.50;99.90;;;;;;5060335;28;20111;-47
2022/02/07 14:18:15;;;;;;;23.88;3.58;;;5.50;99.90;;;;;;5066383;28;20492;-47
2022/02/07 14:20:41;;;;;;;27.77;3.85;;;5.50;99.90;;;;;;5066608;28;20080;-47
2022/02/07 14:23:10;;;;;;;15.90;4.25;;;5.50;99.90;;;;;;5068482;28;20027;-48
2022/02/07 14:25:36;;;;;;;17.15;3.97;;;5.50;99.90;;;;;;5066952;28;20031;-47
2022/02/07 14:28:04;;;;;;;14.05;4.18;;;5.60;99.90;;;;;;5069061;28;20334;-47
2022/02/07 14:30:30;;;;;;;20.85;3.47;;;5.60;99.90;;;;;;5069470;28;20024;-46
2022/02/07 14:32:58;;;;;;;23.30;4.03;;;5.60;99.90;;;;;;5069338;28;20070;-46
2022/02/07 14:35:24;;;;;;;19.58;3.38;;;5.70;99.90;;;;;;5069498;28;20283;-48
2022/02/07 14:37:50;;;;;;;18.60;3.15;;;5.70;99.90;;;;;;5068520;28;20039;-47
2022/02/07 14:40:16;;;;;;;19.33;4.03;;;5.70;99.90;;;;;;5069230;28;20455;-47
2022/02/07 14:42:41;;;;;;;8.38;2.88;;;5.80;99.90;;;;;;5069261;28;20103;-47
2022/02/07 14:45:16;;;;;;;22.13;3.55;;;5.90;99.90;;;;;;5057562;28;20120;-46
2022/02/07 14:50:18;;;;;;;32.80;11.60;;;5.90;99.90;;;;;;5069136;28;20390;-48
2022/02/07 14:52:43;;;;;;;16.38;3.53;;;5.90;99.90;;;;;;5069040;28;20106;-47
2022/02/07 14:55:09;;;;;;;27.40;5.05;;;5.80;99.90;;;;;;5069081;28;20037;-48
2022/02/07 14:57:36;;;;;;;24.05;3.92;;;5.80;99.90;;;;;;5068739;28;20029;-48
2022/02/07 15:00:08;;;;;;;20.30;2.95;;;5.90;99.90;;;;;;5068794;28;20035;-47
2022/02/07 15:02:34;;;;;;;14.50;3.72;;;5.90;99.90;;;;;;5068959;28;20017;-48
2022/02/07 15:05:03;;;;;;;19.60;4.00;;;6.00;99.90;;;;;;5068801;28;20020;-49
2022/02/07 15:07:29;;;;;;;23.73;3.40;;;5.90;99.90;;;;;;5068432;28;20021;-49
2022/02/07 15:09:54;;;;;;;14.45;2.90;;;5.90;99.90;;;;;;5051108;28;20490;-47
2022/02/07 15:12:20;;;;;;;7.55;2.70;;;5.80;99.90;;;;;;5042493;28;20029;-47
2022/02/07 15:14:49;;;;;;;14.93;2.97;;;5.70;99.90;;;;;;5038945;28;20040;-50
2022/02/07 15:17:20;;;;;;;12.15;3.08;;;5.70;99.90;;;;;;5062305;28;20025;-47
2022/02/07 15:19:46;;;;;;;13.40;2.10;;;5.50;99.90;;;;;;5061425;28;20021;-48
2022/02/07 15:22:12;;;;;;;9.50;2.35;;;5.40;99.90;;;;;;5069926;28;20036;-50